Time;durP1;ratioP1;P1;durP2;ratioP2;P2;SDS_P1;SDS_P2;PMS_P1;PMS_P2;Temp;Humidity;BMP_temperature;BMP_pressure;BME280_temperature;BME280_humidity;BME280_pressure;Samples;Min_cycle;Max_cycle;Signal;HPM_P1;HPM_P2
2022/07/07 00:01:48;;;;;;;3.83;0.40;;;16.60;95.50;;;;;;4445952;32;20088;-66
2022/07/07 00:04:14;;;;;;;0.30;0.30;;;16.60;95.70;;;;;;4442994;32;20119;-66
2022/07/07 00:06:39;;;;;;;0.55;0.55;;;16.50;95.60;;;;;;4447299;32;20124;-66
2022/07/07 00:09:05;;;;;;;0.30;0.30;;;16.50;95.70;;;;;;4445891;32;20477;-66
2022/07/07 00:11:31;;;;;;;0.30;0.30;;;16.60;95.60;;;;;;4446984;32;20081;-66
2022/07/07 00:13:57;;;;;;;0.20;0.20;;;16.50;95.70;;;;;;4446450;32;20474;-66
2022/07/07 00:16:23;;;;;;;0.45;0.40;;;16.40;95.90;;;;;;4447075;32;20064;-66
2022/07/07 00:18:49;;;;;;;0.20;0.20;;;16.40;95.90;;;;;;4435990;32;20066;-66
2022/07/07 00:21:14;;;;;;;0.30;0.30;;;16.30;96.10;;;;;;4422045;32;20476;-66
2022/07/07 00:23:40;;;;;;;0.30;0.30;;;16.20;96.30;;;;;;4407278;32;20113;-66
2022/07/07 00:26:06;;;;;;;0.28;0.28;;;16.20;96.40;;;;;;4425024;32;20073;-66
2022/07/07 00:28:31;;;;;;;0.30;0.30;;;16.30;96.60;;;;;;4434228;32;20092;-66
2022/07/07 00:30:57;;;;;;;0.20;0.20;;;16.30;96.50;;;;;;4446830;32;20065;-66
2022/07/07 00:33:23;;;;;;;0.30;0.30;;;16.40;96.50;;;;;;4447417;32;20073;-66
2022/07/07 00:35:49;;;;;;;0.57;0.57;;;16.40;96.60;;;;;;4445781;32;20073;-66
2022/07/07 00:38:15;;;;;;;0.20;0.20;;;16.50;96.40;;;;;;4443975;32;20080;-66
2022/07/07 00:40:41;;;;;;;0.20;0.20;;;16.50;96.40;;;;;;4445557;32;20124;-66
2022/07/07 00:43:06;;;;;;;0.37;0.37;;;16.50;96.30;;;;;;4446335;32;20120;-66
2022/07/07 00:45:32;;;;;;;2.62;0.40;;;16.50;96.80;;;;;;4422068;32;20070;-66
2022/07/07 00:47:59;;;;;;;0.20;0.20;;;16.50;96.60;;;;;;4443007;32;20419;-66
2022/07/07 00:50:25;;;;;;;0.20;0.20;;;16.60;96.40;;;;;;4442847;32;20072;-66
2022/07/07 00:52:50;;;;;;;0.40;0.40;;;16.50;96.40;;;;;;4424439;32;20064;-66
2022/07/07 00:55:16;;;;;;;0.40;0.40;;;16.50;96.50;;;;;;4432648;32;20084;-66
2022/07/07 00:57:41;;;;;;;0.40;0.40;;;16.40;96.60;;;;;;4445630;32;20081;-66
2022/07/07 01:00:10;;;;;;;0.20;0.20;;;16.40;96.80;;;;;;4439848;32;20515;-66
2022/07/07 01:02:35;;;;;;;0.30;0.30;;;16.40;96.80;;;;;;4429907;32;20069;-66
2022/07/07 01:05:05;;;;;;;0.30;0.30;;;16.40;96.80;;;;;;4430821;32;20057;-66
2022/07/07 01:07:31;;;;;;;0.20;0.20;;;16.40;96.90;;;;;;4430039;32;20498;-66
2022/07/07 01:09:58;;;;;;;0.20;0.20;;;16.30;96.90;;;;;;4431303;32;20074;-66
2022/07/07 01:12:24;;;;;;;0.30;0.30;;;16.30;97.00;;;;;;4430321;32;20495;-66
2022/07/07 01:14:50;;;;;;;0.20;0.20;;;16.30;97.30;;;;;;4429790;32;20073;-66
2022/07/07 01:17:16;;;;;;;0.28;0.28;;;16.30;97.70;;;;;;4437908;32;20077;-66
2022/07/07 01:19:41;;;;;;;0.25;0.25;;;16.40;98.50;;;;;;4444864;32;20061;-66
2022/07/07 01:22:12;;;;;;;0.80;0.50;;;16.30;98.90;;;;;;4427226;32;20458;-66
2022/07/07 01:24:38;;;;;;;;;;;16.10;99.90;;;;;;4426866;32;20073;-66
2022/07/07 01:27:05;;;;;;;0.20;0.20;;;16.20;99.90;;;;;;4445880;32;20004;-66
2022/07/07 01:29:36;;;;;;;0.20;0.20;;;16.20;99.90;;;;;;4431689;32;20056;-66
2022/07/07 01:32:02;;;;;;;0.20;0.20;;;16.10;99.90;;;;;;4417993;32;82218;-66
2022/07/07 01:34:28;;;;;;;0.20;0.20;;;16.10;99.90;;;;;;4414590;32;20070;-66
2022/07/07 01:36:53;;;;;;;0.22;0.22;;;16.10;99.90;;;;;;4415409;32;20077;-66
2022/07/07 01:39:19;;;;;;;0.30;0.30;;;16.10;99.90;;;;;;4415691;32;20070;-66
2022/07/07 01:41:44;;;;;;;0.20;0.20;;;16.00;99.90;;;;;;4415372;32;20086;-66
2022/07/07 01:44:10;;;;;;;0.47;0.37;;;15.90;99.90;;;;;;4429323;32;20631;-66
2022/07/07 01:46:35;;;;;;;0.30;0.30;;;15.80;99.90;;;;;;4429973;32;20057;-66
2022/07/07 01:49:01;;;;;;;0.40;0.40;;;15.80;99.90;;;;;;4430568;32;20069;-66
2022/07/07 01:51:26;;;;;;;0.50;0.37;;;15.80;99.90;;;;;;4418907;32;20132;-66
2022/07/07 01:53:51;;;;;;;0.30;0.30;;;15.70;99.90;;;;;;4414516;32;20493;-66
2022/07/07 01:56:17;;;;;;;0.30;0.30;;;15.70;99.90;;;;;;4426640;32;20069;-66
2022/07/07 01:58:42;;;;;;;0.20;0.20;;;15.70;99.90;;;;;;4429112;32;20081;-66
2022/07/07 02:01:08;;;;;;;0.10;0.10;;;15.40;99.90;;;;;;4415669;32;20085;-66
2022/07/07 02:03:33;;;;;;;0.28;0.28;;;15.30;99.90;;;;;;4415364;32;20058;-66
2022/07/07 02:05:59;;;;;;;7.10;0.37;;;15.20;99.90;;;;;;4414811;32;20094;-66
2022/07/07 02:08:24;;;;;;;0.20;0.20;;;15.30;99.90;;;;;;4414216;32;20482;-66
2022/07/07 02:11:21;;;;;;;0.65;0.65;;;15.30;99.90;;;;;;4413956;32;20098;-66
2022/07/07 02:13:35;;;;;;;0.20;0.20;;;15.30;99.90;;;;;;4405758;32;20424;-66
2022/07/07 02:16:01;;;;;;;5.18;1.67;;;15.30;99.90;;;;;;4414840;32;20090;-66
2022/07/07 02:18:27;;;;;;;0.40;0.40;;;15.20;99.90;;;;;;4412894;32;20642;-66
2022/07/07 02:20:52;;;;;;;0.20;0.20;;;15.30;99.90;;;;;;4408655;32;20114;-66
2022/07/07 02:23:17;;;;;;;0.20;0.20;;;15.30;99.90;;;;;;4390571;32;20511;-66
2022/07/07 02:25:43;;;;;;;1.65;1.10;;;15.20;99.90;;;;;;4405510;32;20078;-66
2022/07/07 02:28:09;;;;;;;0.20;0.20;;;15.10;99.90;;;;;;4414879;32;20061;-66
2022/07/07 02:30:34;;;;;;;1.92;0.37;;;15.20;99.90;;;;;;4419352;32;20073;-66
2022/07/07 02:33:00;;;;;;;0.25;0.25;;;15.10;99.90;;;;;;4429497;32;20094;-67
2022/07/07 02:35:25;;;;;;;0.40;0.40;;;15.00;99.90;;;;;;4429820;32;20062;-66
2022/07/07 02:37:51;;;;;;;0.20;0.20;;;14.90;99.90;;;;;;4429383;32;20525;-66
2022/07/07 02:40:16;;;;;;;0.20;0.20;;;14.90;99.90;;;;;;4429096;32;20423;-66
2022/07/07 02:42:42;;;;;;;0.20;0.20;;;14.90;99.90;;;;;;4430535;32;20597;-66
2022/07/07 02:45:08;;;;;;;0.20;0.20;;;14.90;99.90;;;;;;4437792;32;20065;-66
2022/07/07 02:47:33;;;;;;;0.20;0.20;;;14.80;99.90;;;;;;4429908;32;20411;-66
2022/07/07 02:49:59;;;;;;;13.15;1.25;;;14.80;99.90;;;;;;4429239;32;20528;-66
2022/07/07 02:52:24;;;;;;;0.20;0.20;;;14.80;99.90;;;;;;4409156;32;20061;-66
2022/07/07 02:54:49;;;;;;;0.20;0.20;;;14.90;99.90;;;;;;4412593;32;20061;-66
2022/07/07 02:57:15;;;;;;;0.60;0.32;;;14.90;99.90;;;;;;4429397;32;20081;-66
2022/07/07 02:59:40;;;;;;;10.13;0.65;;;14.90;99.90;;;;;;4429685;32;20553;-66
2022/07/07 03:02:06;;;;;;;0.32;0.32;;;14.80;99.90;;;;;;4438889;32;20534;-66
2022/07/07 03:04:31;;;;;;;0.35;0.35;;;14.90;99.90;;;;;;4444948;32;20093;-66
2022/07/07 03:06:57;;;;;;;0.40;0.40;;;14.90;99.90;;;;;;4445103;32;20479;-66
2022/07/07 03:09:22;;;;;;;0.95;0.45;;;14.60;99.90;;;;;;4444702;32;20167;-66
2022/07/07 03:11:48;;;;;;;0.30;0.30;;;14.50;99.90;;;;;;4445405;32;20374;-66
2022/07/07 03:14:14;;;;;;;0.30;0.30;;;14.50;99.90;;;;;;4431621;32;20081;-66
2022/07/07 03:16:39;;;;;;;0.30;0.30;;;14.50;99.90;;;;;;4429509;32;20132;-66
2022/07/07 03:19:05;;;;;;;0.30;0.30;;;14.40;99.90;;;;;;4429552;32;20120;-66
2022/07/07 03:21:30;;;;;;;0.40;0.40;;;14.30;99.90;;;;;;4417629;32;20061;-66
2022/07/07 03:23:56;;;;;;;0.30;0.30;;;14.40;99.90;;;;;;4407397;32;20065;-65
2022/07/07 03:26:22;;;;;;;0.30;0.30;;;14.40;99.90;;;;;;4425803;32;20141;-65
2022/07/07 03:28:47;;;;;;;0.37;0.37;;;14.40;99.90;;;;;;4428734;32;20124;-65
2022/07/07 03:31:13;;;;;;;0.30;0.30;;;14.10;99.90;;;;;;4438263;32;20081;-65
2022/07/07 03:33:38;;;;;;;0.73;0.70;;;14.10;99.90;;;;;;4444565;32;20086;-66
2022/07/07 03:36:04;;;;;;;0.40;0.40;;;14.20;99.90;;;;;;4446978;32;20069;-66
2022/07/07 03:38:29;;;;;;;0.30;0.30;;;14.10;99.90;;;;;;4447679;32;20065;-66
2022/07/07 03:40:55;;;;;;;0.20;0.20;;;14.10;99.90;;;;;;4429656;32;20081;-66
2022/07/07 03:43:20;;;;;;;0.30;0.30;;;14.10;99.90;;;;;;4438525;32;20576;-66
2022/07/07 03:45:46;;;;;;;0.52;0.40;;;14.00;99.90;;;;;;4435605;32;20069;-66
2022/07/07 03:48:11;;;;;;;0.40;0.32;;;14.10;99.90;;;;;;4431901;32;20077;-66
2022/07/07 03:50:37;;;;;;;0.22;0.22;;;14.10;99.90;;;;;;4429322;32;20086;-66
2022/07/07 03:53:02;;;;;;;0.25;0.25;;;14.10;99.90;;;;;;4411590;32;20080;-66
2022/07/07 03:55:28;;;;;;;0.30;0.30;;;14.10;99.90;;;;;;4436669;32;20406;-65
2022/07/07 03:57:54;;;;;;;0.30;0.30;;;14.10;99.90;;;;;;4430214;32;20077;-65
2022/07/07 04:00:19;;;;;;;0.40;0.40;;;14.10;99.90;;;;;;4416688;32;20128;-65
2022/07/07 04:02:45;;;;;;;0.30;0.30;;;14.20;99.90;;;;;;4431605;32;20473;-65
2022/07/07 04:05:10;;;;;;;0.35;0.35;;;14.30;99.90;;;;;;4431540;32;20078;-65
2022/07/07 04:07:36;;;;;;;0.20;0.20;;;14.40;99.90;;;;;;4431262;32;20077;-65
2022/07/07 04:10:03;;;;;;;1.00;0.45;;;14.40;99.90;;;;;;4431828;32;20062;-65
2022/07/07 04:12:28;;;;;;;0.32;0.32;;;14.30;99.90;;;;;;4435394;32;20136;-65
2022/07/07 04:14:55;;;;;;;0.47;0.30;;;14.30;99.90;;;;;;4431109;32;20065;-65
2022/07/07 04:17:20;;;;;;;0.62;0.50;;;14.30;99.90;;;;;;4431411;32;20130;-65
2022/07/07 04:19:46;;;;;;;0.50;0.50;;;14.30;99.90;;;;;;4431203;32;20444;-66
2022/07/07 04:22:11;;;;;;;0.30;0.30;;;14.30;99.90;;;;;;4413861;32;20089;-66
2022/07/07 04:24:37;;;;;;;0.30;0.30;;;14.30;99.90;;;;;;4419362;32;20057;-66
2022/07/07 04:27:03;;;;;;;0.45;0.45;;;14.20;99.90;;;;;;4437810;32;20445;-66
2022/07/07 04:29:29;;;;;;;4.78;0.68;;;14.20;99.90;;;;;;4443114;32;20074;-66
2022/07/07 04:31:54;;;;;;;0.28;0.25;;;14.30;99.90;;;;;;4432702;32;20073;-66
2022/07/07 04:34:22;;;;;;;1.05;0.45;;;14.30;99.90;;;;;;4431337;32;20066;-66
2022/07/07 04:36:47;;;;;;;0.40;0.40;;;14.30;99.90;;;;;;4431640;32;20174;-66
2022/07/07 04:39:13;;;;;;;0.20;0.20;;;14.40;99.90;;;;;;4444871;32;20069;-66
2022/07/07 04:41:38;;;;;;;1.40;0.77;;;14.20;99.90;;;;;;4424679;32;20090;-66
2022/07/07 04:44:05;;;;;;;0.30;0.30;;;14.30;99.90;;;;;;4429169;32;20077;-66
2022/07/07 04:46:31;;;;;;;0.40;0.40;;;14.40;99.90;;;;;;4429899;32;20189;-66
2022/07/07 04:48:56;;;;;;;0.30;0.30;;;14.40;99.90;;;;;;4430724;32;20073;-66
2022/07/07 04:51:23;;;;;;;1.25;0.35;;;14.40;99.90;;;;;;4424417;32;20089;-66
2022/07/07 04:53:49;;;;;;;0.40;0.40;;;14.30;99.90;;;;;;4422477;32;20388;-66
2022/07/07 04:56:15;;;;;;;0.35;0.35;;;14.30;99.90;;;;;;4427723;32;20409;-66
2022/07/07 04:58:41;;;;;;;0.30;0.30;;;14.40;99.90;;;;;;4446138;32;20069;-67
2022/07/07 05:01:08;;;;;;;0.73;0.40;;;14.40;99.90;;;;;;4433339;32;20068;-66
2022/07/07 05:03:33;;;;;;;0.30;0.30;;;14.30;99.90;;;;;;4411771;32;20113;-66
2022/07/07 05:05:59;;;;;;;0.57;0.55;;;14.30;99.90;;;;;;4419889;32;20589;-66
2022/07/07 05:08:24;;;;;;;0.30;0.30;;;14.40;99.90;;;;;;4420528;32;20104;-66
2022/07/07 05:10:50;;;;;;;0.20;0.20;;;14.40;99.90;;;;;;4421704;32;20093;-66
2022/07/07 05:13:15;;;;;;;0.20;0.20;;;14.50;99.90;;;;;;4426112;32;20061;-66
2022/07/07 05:15:41;;;;;;;0.40;0.40;;;14.50;99.90;;;;;;4437690;32;20069;-66
2022/07/07 05:18:06;;;;;;;0.20;0.20;;;14.50;99.90;;;;;;4415688;32;20082;-66
2022/07/07 05:20:32;;;;;;;0.43;0.43;;;14.40;99.90;;;;;;4431536;32;20072;-66
2022/07/07 05:22:58;;;;;;;0.32;0.32;;;14.50;99.90;;;;;;4404572;32;20058;-66
2022/07/07 05:25:23;;;;;;;0.35;0.35;;;14.40;99.90;;;;;;4417446;32;20120;-66
2022/07/07 05:27:49;;;;;;;0.30;0.30;;;14.40;99.90;;;;;;4428897;32;20517;-66
2022/07/07 05:30:14;;;;;;;0.30;0.30;;;14.40;99.90;;;;;;4434627;32;20119;-66
2022/07/07 05:32:40;;;;;;;29.60;1.12;;;14.30;99.90;;;;;;4410252;32;20498;-66
2022/07/07 05:35:06;;;;;;;0.28;0.28;;;14.30;99.90;;;;;;4440323;32;20092;-66
2022/07/07 05:37:31;;;;;;;1.00;0.82;;;14.30;99.90;;;;;;4430931;32;20089;-66
2022/07/07 05:39:57;;;;;;;0.20;0.20;;;14.30;99.90;;;;;;4415435;32;20160;-67
2022/07/07 05:42:22;;;;;;;0.30;0.30;;;14.20;99.90;;;;;;4428748;32;20513;-66
2022/07/07 05:44:48;;;;;;;0.40;0.40;;;14.20;99.90;;;;;;4407477;32;20065;-66
2022/07/07 05:47:13;;;;;;;0.20;0.20;;;14.20;99.90;;;;;;4419185;32;20554;-66
2022/07/07 05:49:39;;;;;;;0.30;0.30;;;14.30;99.90;;;;;;4437115;32;20184;-66
2022/07/07 05:52:05;;;;;;;0.20;0.20;;;14.30;99.90;;;;;;4414831;32;20065;-66
2022/07/07 05:54:30;;;;;;;0.30;0.30;;;14.30;99.90;;;;;;4413997;32;20662;-66
2022/07/07 05:56:56;;;;;;;0.60;0.60;;;14.30;99.90;;;;;;4443696;32;20068;-66
2022/07/07 05:59:21;;;;;;;0.52;0.52;;;14.30;99.90;;;;;;4443860;32;20517;-66
2022/07/07 06:01:47;;;;;;;0.35;0.35;;;14.30;99.90;;;;;;4435577;32;20128;-66
2022/07/07 06:04:12;;;;;;;0.30;0.30;;;14.30;99.90;;;;;;4437141;32;20503;-66
2022/07/07 06:06:38;;;;;;;0.20;0.20;;;14.30;99.90;;;;;;4444378;32;20065;-66
2022/07/07 06:09:03;;;;;;;0.28;0.28;;;14.30;99.90;;;;;;4444067;32;20480;-66
2022/07/07 06:11:29;;;;;;;0.28;0.28;;;14.30;99.90;;;;;;4441309;32;20062;-66
2022/07/07 06:13:54;;;;;;;0.20;0.20;;;14.30;99.90;;;;;;4435243;32;20486;-66
2022/07/07 06:16:38;;;;;;;0.40;0.40;;;14.40;99.90;;;;;;4438097;32;20070;-66
2022/07/07 06:19:05;;;;;;;1.67;0.50;;;14.30;99.90;;;;;;4429096;32;20073;-66
2022/07/07 06:21:30;;;;;;;0.43;0.43;;;14.30;99.90;;;;;;4418100;32;20205;-66
2022/07/07 06:23:56;;;;;;;0.52;0.52;;;14.30;99.90;;;;;;4409612;32;20121;-66
2022/07/07 06:26:21;;;;;;;0.32;0.32;;;14.40;99.90;;;;;;4426957;32;20086;-66
2022/07/07 06:28:47;;;;;;;0.37;0.37;;;14.40;99.90;;;;;;4429692;32;20081;-66
2022/07/07 06:31:12;;;;;;;0.40;0.40;;;14.40;99.90;;;;;;4424229;32;20089;-66
2022/07/07 06:33:38;;;;;;;2.37;0.50;;;14.40;99.90;;;;;;4418528;32;20221;-66
2022/07/07 06:36:04;;;;;;;0.30;0.30;;;14.50;99.90;;;;;;4414504;32;20074;-66
2022/07/07 06:38:29;;;;;;;0.55;0.40;;;14.50;99.90;;;;;;4428646;32;20069;-66
2022/07/07 06:40:58;;;;;;;0.40;0.40;;;14.40;99.90;;;;;;4428967;32;20161;-66
2022/07/07 06:43:24;;;;;;;0.52;0.52;;;14.40;99.90;;;;;;4426223;32;20088;-66
2022/07/07 06:45:50;;;;;;;0.40;0.40;;;14.40;99.90;;;;;;4405128;32;20069;-66
2022/07/07 06:48:15;;;;;;;1.15;0.50;;;14.50;99.90;;;;;;4441090;32;20512;-66
2022/07/07 06:50:41;;;;;;;0.50;0.50;;;14.40;99.90;;;;;;4428437;32;20497;-66
2022/07/07 06:53:07;;;;;;;0.30;0.30;;;14.40;99.90;;;;;;4408834;32;20073;-66
2022/07/07 06:55:33;;;;;;;0.37;0.37;;;14.50;99.90;;;;;;4430598;32;20065;-66
2022/07/07 06:57:58;;;;;;;0.40;0.40;;;14.60;99.90;;;;;;4443547;32;20084;-66
2022/07/07 07:00:24;;;;;;;0.25;0.25;;;14.60;99.90;;;;;;4441651;32;20089;-66
2022/07/07 07:02:50;;;;;;;2.05;0.52;;;14.70;99.90;;;;;;4434601;32;20412;-66
2022/07/07 07:05:16;;;;;;;1.52;0.82;;;14.70;99.90;;;;;;4439209;32;20069;-66
2022/07/07 07:07:41;;;;;;;0.40;0.40;;;14.60;99.90;;;;;;4417693;32;20448;-66
2022/07/07 07:10:08;;;;;;;0.60;0.50;;;14.60;99.90;;;;;;4432572;32;20094;-66
2022/07/07 07:12:34;;;;;;;0.32;0.32;;;14.60;99.90;;;;;;4433093;32;20473;-66
2022/07/07 07:15:00;;;;;;;0.47;0.47;;;14.60;99.90;;;;;;4407649;32;20630;-66
2022/07/07 07:17:25;;;;;;;0.35;0.30;;;14.60;99.90;;;;;;4430820;32;20073;-66
2022/07/07 07:19:51;;;;;;;0.47;0.45;;;14.70;99.90;;;;;;4441713;32;20077;-66
2022/07/07 07:22:17;;;;;;;0.30;0.30;;;14.70;99.90;;;;;;4413295;32;20629;-66
2022/07/07 07:24:43;;;;;;;0.30;0.30;;;14.70;99.90;;;;;;4398846;32;20073;-66
2022/07/07 07:27:08;;;;;;;0.40;0.40;;;14.80;99.90;;;;;;4430050;32;20069;-66
2022/07/07 07:29:34;;;;;;;0.30;0.30;;;14.90;99.90;;;;;;4437706;32;20161;-66
2022/07/07 07:32:00;;;;;;;0.80;0.30;;;14.80;99.90;;;;;;4419916;32;20077;-66
2022/07/07 07:34:25;;;;;;;0.35;0.35;;;14.80;99.90;;;;;;4406632;32;20065;-66
2022/07/07 07:36:51;;;;;;;0.30;0.30;;;14.80;99.90;;;;;;4428684;32;20061;-66
2022/07/07 07:39:16;;;;;;;0.20;0.20;;;14.80;99.90;;;;;;4428475;32;20172;-66
2022/07/07 07:41:43;;;;;;;0.50;0.50;;;14.90;99.90;;;;;;4430225;32;20072;-66
2022/07/07 07:44:09;;;;;;;0.30;0.30;;;15.00;99.90;;;;;;4420662;32;20069;-66
2022/07/07 07:46:35;;;;;;;0.25;0.25;;;15.10;99.90;;;;;;4427538;32;20065;-66
2022/07/07 07:49:05;;;;;;;0.30;0.30;;;15.10;99.90;;;;;;4430737;32;20078;-66
2022/07/07 07:51:32;;;;;;;0.40;0.40;;;15.10;99.90;;;;;;4435610;32;20057;-66
2022/07/07 07:53:57;;;;;;;0.30;0.30;;;15.10;99.90;;;;;;4419422;32;20061;-66
2022/07/07 07:56:23;;;;;;;0.30;0.30;;;15.10;99.90;;;;;;4426393;32;20093;-66
2022/07/07 07:58:48;;;;;;;0.47;0.47;;;15.10;99.90;;;;;;4429395;32;20132;-66
2022/07/07 08:01:13;;;;;;;0.40;0.40;;;15.10;99.90;;;;;;4433893;32;20124;-64
2022/07/07 08:03:39;;;;;;;0.37;0.37;;;15.00;99.90;;;;;;4433847;32;20065;-65
2022/07/07 08:06:04;;;;;;;0.30;0.30;;;15.10;99.90;;;;;;4427654;32;20410;-65
2022/07/07 08:08:30;;;;;;;0.35;0.35;;;15.20;99.90;;;;;;4431567;32;20069;-65
2022/07/07 08:10:55;;;;;;;0.43;0.43;;;15.20;99.90;;;;;;4439479;32;20180;-65
2022/07/07 08:13:21;;;;;;;0.30;0.30;;;15.20;99.90;;;;;;4423739;32;20065;-65
2022/07/07 08:15:46;;;;;;;0.30;0.30;;;15.30;99.90;;;;;;4420160;32;20575;-65
2022/07/07 08:18:12;;;;;;;0.40;0.37;;;15.30;99.90;;;;;;4433717;32;20120;-65
2022/07/07 08:20:37;;;;;;;0.40;0.35;;;15.40;99.90;;;;;;4440857;32;20064;-65
2022/07/07 08:23:03;;;;;;;0.30;0.30;;;15.30;99.90;;;;;;4425423;32;20073;-65
2022/07/07 08:25:28;;;;;;;0.57;0.40;;;15.30;99.90;;;;;;4422070;32;20065;-65
2022/07/07 08:27:54;;;;;;;0.98;0.88;;;15.30;99.90;;;;;;4446907;32;20172;-64
2022/07/07 08:30:20;;;;;;;0.30;0.30;;;15.30;99.90;;;;;;4438075;32;20114;-64
2022/07/07 08:32:45;;;;;;;0.20;0.20;;;15.30;99.90;;;;;;4406667;32;20128;-65
2022/07/07 08:35:12;;;;;;;0.30;0.30;;;15.30;99.90;;;;;;4426757;32;20578;-65
2022/07/07 08:37:38;;;;;;;0.45;0.45;;;15.30;99.90;;;;;;4417796;32;20108;-65
2022/07/07 08:40:04;;;;;;;0.32;0.32;;;15.30;99.90;;;;;;4423598;32;20123;-64
2022/07/07 08:42:29;;;;;;;0.20;0.20;;;15.30;99.90;;;;;;4432508;32;20074;-64
2022/07/07 08:44:55;;;;;;;0.30;0.30;;;15.40;99.90;;;;;;4412807;32;20069;-64
2022/07/07 08:47:20;;;;;;;0.32;0.32;;;15.40;99.90;;;;;;4431603;32;20538;-65
2022/07/07 08:49:46;;;;;;;0.30;0.30;;;15.50;99.90;;;;;;4431223;32;20127;-65
2022/07/07 08:52:12;;;;;;;0.30;0.30;;;15.50;99.90;;;;;;4413802;32;20119;-65
2022/07/07 08:54:39;;;;;;;0.30;0.30;;;15.60;99.90;;;;;;4412330;32;20501;-64
2022/07/07 08:57:06;;;;;;;0.30;0.30;;;15.60;99.90;;;;;;4429124;32;20582;-64
2022/07/07 08:59:31;;;;;;;0.30;0.30;;;15.60;99.90;;;;;;4430182;32;20123;-64
2022/07/07 09:01:59;;;;;;;0.37;0.37;;;15.60;99.90;;;;;;4419810;32;20070;-65
2022/07/07 09:04:25;;;;;;;0.30;0.30;;;15.70;99.90;;;;;;4409054;32;20128;-65
2022/07/07 09:06:53;;;;;;;0.40;0.40;;;15.80;99.90;;;;;;4431418;32;20065;-65
2022/07/07 09:09:36;;;;;;;0.40;0.40;;;15.80;99.90;;;;;;4419965;32;20123;-65
2022/07/07 09:12:03;;;;;;;0.35;0.35;;;15.70;99.90;;;;;;4429202;32;20579;-65
2022/07/07 09:14:50;;;;;;;0.28;0.28;;;15.70;99.90;;;;;;4437321;32;20073;-64
2022/07/07 09:17:19;;;;;;;0.20;0.20;;;15.80;99.90;;;;;;4415789;32;20533;-65
2022/07/07 09:20:12;;;;;;;0.20;0.20;;;15.80;99.90;;;;;;4444635;32;20532;-65
2022/07/07 09:22:43;;;;;;;0.37;0.37;;;15.90;99.90;;;;;;4400062;32;20129;-65
2022/07/07 09:25:10;;;;;;;0.43;0.43;;;15.90;99.90;;;;;;4420741;32;20065;-65
2022/07/07 09:27:57;;;;;;;0.50;0.50;;;15.90;99.90;;;;;;4446700;32;20060;-65
2022/07/07 09:30:27;;;;;;;0.30;0.30;;;15.90;99.90;;;;;;4431128;32;20076;-65
2022/07/07 09:32:53;;;;;;;0.40;0.30;;;16.00;99.90;;;;;;4436513;32;20077;-65
2022/07/07 09:38:13;;;;;;;0.30;0.30;;;16.00;99.90;;;;;;4440516;32;20089;-65
2022/07/07 09:38:14;;;;;;;0.40;0.40;;;16.00;99.90;;;;;;4417577;32;20407;-65
2022/07/07 09:41:03;;;;;;;0.22;0.22;;;16.00;99.90;;;;;;4434389;32;20086;-65
2022/07/07 09:43:33;;;;;;;0.30;0.30;;;16.10;99.90;;;;;;4426060;32;20085;-65
2022/07/07 09:46:09;;;;;;;0.28;0.28;;;16.10;99.90;;;;;;4426972;32;20081;-65
2022/07/07 09:48:36;;;;;;;0.30;0.30;;;16.10;99.90;;;;;;4444829;32;20065;-65
2022/07/07 09:51:11;;;;;;;0.30;0.30;;;16.20;99.90;;;;;;4437986;32;20642;-65
2022/07/07 09:53:59;;;;;;;0.40;0.40;;;16.20;99.90;;;;;;4424593;32;20065;-65
2022/07/07 09:56:28;;;;;;;0.30;0.30;;;16.30;99.90;;;;;;4402996;32;20061;-65
2022/07/07 09:58:54;;;;;;;0.20;0.20;;;16.30;99.90;;;;;;4417072;32;20064;-65
2022/07/07 10:01:24;;;;;;;0.30;0.30;;;16.30;99.90;;;;;;4408065;32;20078;-65
2022/07/07 10:03:54;;;;;;;0.20;0.20;;;16.40;99.90;;;;;;4420396;32;20094;-65
2022/07/07 10:06:20;;;;;;;0.30;0.30;;;16.40;99.90;;;;;;4416843;32;20112;-65
2022/07/07 10:08:49;;;;;;;0.30;0.30;;;16.40;99.90;;;;;;4430202;32;20502;-64
2022/07/07 10:11:17;;;;;;;0.20;0.20;;;16.40;99.90;;;;;;4417814;32;20085;-65
2022/07/07 10:13:44;;;;;;;0.55;0.55;;;16.50;99.90;;;;;;4434255;32;20107;-65
2022/07/07 10:16:10;;;;;;;0.30;0.30;;;16.60;99.90;;;;;;4421644;32;20077;-65
2022/07/07 10:18:36;;;;;;;0.30;0.30;;;16.60;99.90;;;;;;4438589;32;20066;-65
2022/07/07 10:21:03;;;;;;;0.40;0.40;;;16.60;99.90;;;;;;4431947;32;20072;-65
2022/07/07 10:23:33;;;;;;;0.28;0.28;;;16.60;99.90;;;;;;4423014;32;20095;-65
2022/07/07 10:26:01;;;;;;;0.40;0.40;;;16.70;99.90;;;;;;4440607;32;20523;-65
2022/07/07 10:28:53;;;;;;;0.37;0.37;;;16.80;99.90;;;;;;4445008;32;20175;-65
2022/07/07 10:31:23;;;;;;;0.22;0.22;;;16.80;99.90;;;;;;4407400;32;20094;-65
2022/07/07 10:34:03;;;;;;;0.30;0.30;;;16.70;99.90;;;;;;4420471;32;20085;-65
2022/07/07 10:36:50;;;;;;;0.32;0.32;;;16.80;99.90;;;;;;4416826;32;20516;-65
2022/07/07 10:39:17;;;;;;;0.43;0.43;;;16.80;99.90;;;;;;4418334;32;20192;-65
2022/07/07 10:42:14;;;;;;;0.43;0.32;;;16.90;99.90;;;;;;4414568;32;20156;-65
2022/07/07 10:44:40;;;;;;;0.43;0.43;;;16.90;99.90;;;;;;4396358;32;20524;-65
2022/07/07 10:47:27;;;;;;;0.30;0.30;;;16.80;99.90;;;;;;4437047;32;20155;-65
2022/07/07 10:49:54;;;;;;;1.95;0.50;;;16.80;99.90;;;;;;4433584;32;20081;-65
2022/07/07 10:52:22;;;;;;;0.20;0.20;;;16.80;99.90;;;;;;4423970;32;20529;-64
2022/07/07 10:54:52;;;;;;;0.50;0.50;;;16.80;99.90;;;;;;4409146;32;20501;-64
2022/07/07 10:57:19;;;;;;;0.28;0.28;;;16.80;99.90;;;;;;4418193;32;20146;-65
2022/07/07 11:00:06;;;;;;;0.50;0.50;;;16.80;99.90;;;;;;4414476;32;20045;-64
2022/07/07 11:02:35;;;;;;;0.35;0.35;;;16.80;99.90;;;;;;4418846;32;20652;-65
2022/07/07 11:05:04;;;;;;;0.30;0.30;;;16.70;99.90;;;;;;4424320;32;20108;-66
2022/07/07 11:07:30;;;;;;;0.40;0.40;;;16.70;99.90;;;;;;4415649;32;20073;-65
2022/07/07 11:10:03;;;;;;;0.40;0.40;;;16.70;99.90;;;;;;4429707;32;20478;-65
2022/07/07 11:12:52;;;;;;;0.40;0.40;;;16.80;99.90;;;;;;4411103;32;20331;-65
2022/07/07 11:15:21;;;;;;;0.40;0.40;;;16.80;99.90;;;;;;4407388;32;20081;-65
2022/07/07 11:18:06;;;;;;;0.30;0.30;;;16.80;99.90;;;;;;4443424;32;20113;-65
2022/07/07 11:20:32;;;;;;;0.40;0.40;;;16.70;99.90;;;;;;4425526;32;20479;-65
2022/07/07 11:23:08;;;;;;;0.75;0.75;;;16.70;99.90;;;;;;4394509;32;20070;-65
2022/07/07 11:25:34;;;;;;;0.60;0.60;;;16.80;99.90;;;;;;4420337;32;20065;-65
2022/07/07 11:28:00;;;;;;;0.22;0.22;;;16.80;99.90;;;;;;4403025;32;20073;-65
2022/07/07 11:30:26;;;;;;;0.57;0.40;;;16.90;99.90;;;;;;4401694;32;20069;-65
2022/07/07 11:32:56;;;;;;;0.25;0.25;;;16.90;99.90;;;;;;4415365;32;20094;-65
2022/07/07 11:35:22;;;;;;;0.37;0.37;;;16.90;99.90;;;;;;4427256;32;20148;-65
2022/07/07 11:37:48;;;;;;;0.40;0.40;;;16.90;99.90;;;;;;4444253;32;20073;-65
2022/07/07 11:40:16;;;;;;;0.90;0.70;;;17.00;99.90;;;;;;4444775;32;20502;-65
2022/07/07 11:42:42;;;;;;;0.37;0.37;;;17.00;99.90;;;;;;4438258;32;20078;-65
2022/07/07 11:45:25;;;;;;;0.32;0.32;;;17.00;99.90;;;;;;4419706;32;20102;-65
2022/07/07 11:47:52;;;;;;;0.65;0.43;;;17.10;99.90;;;;;;4429454;32;20134;-65
2022/07/07 11:50:18;;;;;;;0.50;0.50;;;17.20;99.90;;;;;;4417539;32;20085;-65
2022/07/07 11:52:48;;;;;;;0.40;0.40;;;17.20;99.90;;;;;;4423607;32;20077;-66
2022/07/07 11:55:17;;;;;;;0.40;0.40;;;17.20;99.90;;;;;;4408567;32;20077;-66
2022/07/07 11:57:42;;;;;;;0.50;0.50;;;17.20;99.90;;;;;;4418395;32;20086;-65
2022/07/07 12:00:10;;;;;;;6.37;0.55;;;17.20;99.90;;;;;;4429406;32;20058;-65
2022/07/07 12:02:35;;;;;;;0.20;0.20;;;17.10;99.90;;;;;;4405410;32;20070;-65
2022/07/07 12:05:01;;;;;;;0.30;0.30;;;17.20;99.90;;;;;;4426859;32;20380;-66
2022/07/07 12:07:26;;;;;;;1.00;0.47;;;17.20;99.90;;;;;;4430534;32;20160;-66
2022/07/07 12:09:52;;;;;;;0.40;0.40;;;17.30;99.90;;;;;;4430533;32;20069;-66
2022/07/07 12:12:18;;;;;;;2.20;0.60;;;17.50;99.90;;;;;;4413979;32;20058;-66
2022/07/07 12:14:44;;;;;;;0.73;0.62;;;17.60;99.90;;;;;;4420573;32;20066;-66
2022/07/07 12:17:10;;;;;;;0.32;0.32;;;17.70;99.90;;;;;;4442089;32;20116;-66
2022/07/07 12:19:51;;;;;;;0.37;0.37;;;17.90;99.90;;;;;;4432440;32;20422;-66
2022/07/07 12:22:34;;;;;;;3.40;1.02;;;18.10;99.90;;;;;;4429435;32;20543;-65
2022/07/07 12:25:04;;;;;;;0.40;0.40;;;18.30;99.90;;;;;;4418574;32;20081;-66
2022/07/07 12:27:30;;;;;;;0.50;0.50;;;18.50;99.90;;;;;;4420946;32;20068;-66
2022/07/07 12:30:02;;;;;;;0.50;0.50;;;18.60;99.90;;;;;;4431587;32;20085;-66
2022/07/07 12:32:28;;;;;;;0.30;0.30;;;19.20;99.90;;;;;;4421398;32;20070;-67
2022/07/07 12:34:53;;;;;;;0.40;0.40;;;19.80;99.90;;;;;;4440993;32;20463;-66
2022/07/07 12:37:19;;;;;;;0.30;0.30;;;20.20;99.90;;;;;;4445715;32;20646;-65
2022/07/07 12:39:50;;;;;;;0.30;0.30;;;20.30;99.90;;;;;;4446462;32;20396;-65
2022/07/07 12:42:33;;;;;;;0.30;0.30;;;20.30;99.90;;;;;;4442736;32;20069;-64
2022/07/07 12:45:17;;;;;;;0.40;0.40;;;20.30;99.90;;;;;;4429526;32;20148;-64
2022/07/07 12:47:50;;;;;;;0.22;0.22;;;20.20;99.90;;;;;;4426728;32;20121;-65
2022/07/07 12:50:16;;;;;;;0.30;0.30;;;20.10;99.90;;;;;;4429459;32;20065;-65